createdAt,value
2017-03-16T00:00:05.075Z,7.47
2017-03-16T00:00:45.954Z,7.5
2017-03-16T00:01:26.834Z,7.61
2017-03-16T00:02:07.708Z,7.5
2017-03-16T00:02:48.591Z,7.51
2017-03-16T00:03:29.479Z,7.53
2017-03-16T00:05:23.455Z,7.56
2017-03-16T00:06:04.334Z,7.43
2017-03-16T00:06:45.215Z,7.5
2017-03-16T00:07:26.076Z,7.45
2017-03-16T00:08:06.967Z,7.47
2017-03-16T00:08:47.965Z,7.5
2017-03-16T00:09:28.843Z,7.5
2017-03-16T00:10:09.713Z,7.48
2017-03-16T00:11:48.332Z,7.48
2017-03-16T00:12:29.215Z,7.45
2017-03-16T00:13:10.089Z,7.5
2017-03-16T00:13:50.965Z,7.48
2017-03-16T00:14:31.842Z,7.47
2017-03-16T00:15:12.733Z,7.36
2017-03-16T00:15:53.612Z,7.39
2017-03-16T00:16:34.505Z,7.38
2017-03-16T00:17:15.375Z,7.29
2017-03-16T00:17:56.268Z,7.35
2017-03-16T00:18:37.148Z,7.36
2017-03-16T00:19:18.029Z,7.35
2017-03-16T00:19:58.921Z,7.29
2017-03-16T00:20:39.801Z,7.35
2017-03-16T00:21:20.687Z,7.36
2017-03-16T00:22:01.562Z,7.31
2017-03-16T00:22:42.428Z,7.47
2017-03-16T00:23:23.308Z,7.28
2017-03-16T00:24:04.200Z,7.32
2017-03-16T00:24:45.087Z,7.32
2017-03-16T00:25:25.966Z,7.24
2017-03-16T00:26:06.859Z,7.2
2017-03-16T00:26:47.740Z,7.18
2017-03-16T00:27:28.623Z,7.23
2017-03-16T00:28:09.498Z,7.24
2017-03-16T00:28:50.402Z,7.31
2017-03-16T00:29:31.290Z,7.21
2017-03-16T00:30:12.166Z,7.17
2017-03-16T00:30:53.042Z,7.29
2017-03-16T00:31:33.927Z,7.23
2017-03-16T00:32:14.811Z,7.24
2017-03-16T00:32:55.695Z,7.2
2017-03-16T00:33:36.558Z,7.23
2017-03-16T00:34:17.433Z,7.28
2017-03-16T00:34:58.336Z,7.28
2017-03-16T00:35:39.216Z,7.21
2017-03-16T00:36:20.090Z,7.2
2017-03-16T00:37:00.961Z,7.23
2017-03-16T00:37:41.837Z,7.18
2017-03-16T00:38:22.734Z,7.14
2017-03-16T00:39:03.616Z,7.2
2017-03-16T00:39:44.485Z,7.02
2017-03-16T00:40:25.362Z,7.07
2017-03-16T00:41:06.238Z,7.17
2017-03-16T00:41:47.132Z,7
2017-03-16T00:42:28.001Z,7.21
2017-03-16T00:43:08.872Z,7.25
2017-03-16T00:43:49.759Z,7.18
2017-03-16T00:44:30.655Z,7.28
2017-03-16T00:45:11.560Z,7.21
2017-03-16T00:45:52.412Z,7.28
2017-03-16T00:46:33.288Z,7.24
2017-03-16T00:47:14.162Z,7.2
2017-03-16T00:47:55.059Z,7.24
2017-03-16T00:48:35.939Z,7.18
2017-03-16T00:49:16.820Z,7.18
2017-03-16T00:49:57.708Z,7.24
2017-03-16T00:50:38.565Z,7.2
2017-03-16T00:51:19.458Z,7.28
2017-03-16T00:52:00.341Z,7.28
2017-03-16T00:52:41.201Z,7.13
2017-03-16T00:53:22.072Z,7.13
2017-03-16T00:54:02.952Z,7.17
2017-03-16T00:54:43.831Z,7.14
2017-03-16T00:55:24.715Z,7.13
2017-03-16T00:56:05.583Z,7.2
2017-03-16T00:56:46.458Z,7.17
2017-03-16T00:57:27.336Z,7.17
2017-03-16T00:58:08.222Z,7.18
2017-03-16T00:58:49.111Z,7.13
2017-03-16T00:59:29.996Z,7.17
2017-03-16T01:00:10.884Z,7.15
2017-03-16T01:00:51.787Z,7.13
2017-03-16T01:01:32.657Z,7.23
2017-03-16T01:02:13.543Z,7.28
2017-03-16T01:02:54.429Z,7.24
2017-03-16T01:03:35.315Z,7.2
2017-03-16T01:04:16.188Z,7.25
2017-03-16T01:04:57.094Z,7.24
2017-03-16T01:05:37.980Z,7.18
2017-03-16T01:06:18.863Z,7.23
2017-03-16T01:06:59.738Z,7.24
2017-03-16T01:07:40.618Z,7.21
2017-03-16T01:08:21.507Z,7.17
2017-03-16T01:09:02.384Z,7.18
2017-03-16T01:09:43.265Z,7.24
2017-03-16T01:10:24.140Z,7.18
2017-03-16T01:11:05.025Z,7.24
2017-03-16T01:11:45.905Z,7.23
2017-03-16T01:12:26.796Z,7.17
2017-03-16T01:13:07.663Z,7.07
2017-03-16T01:13:48.577Z,7.1
2017-03-16T01:14:29.445Z,7.18
2017-03-16T01:15:10.320Z,7.18
2017-03-16T01:15:51.233Z,7.17
2017-03-16T01:17:19.662Z,7.15
2017-03-16T01:18:00.544Z,7.23
2017-03-16T01:18:41.441Z,7.14
2017-03-16T01:19:23.579Z,7.05
2017-03-16T01:20:05.277Z,7.18
2017-03-16T01:20:46.155Z,7.1
2017-03-16T01:21:27.040Z,7.17
2017-03-16T01:22:07.923Z,7.17
2017-03-16T01:22:48.838Z,7.05
2017-03-16T01:23:29.896Z,7.15
2017-03-16T01:24:10.778Z,7.03
2017-03-16T01:24:51.663Z,7
2017-03-16T01:25:32.537Z,6.99
2017-03-16T01:26:13.421Z,6.89
2017-03-16T01:26:54.308Z,6.95
2017-03-16T01:27:35.185Z,6.97
2017-03-16T01:28:16.073Z,7.03
2017-03-16T01:28:56.963Z,7.02
2017-03-16T01:29:37.845Z,6.99
2017-03-16T01:30:18.724Z,6.95
2017-03-16T01:30:59.609Z,6.92
2017-03-16T01:31:40.489Z,6.93
2017-03-16T01:32:21.364Z,7.03
2017-03-16T01:33:02.233Z,6.93
2017-03-16T01:33:43.097Z,6.87
2017-03-16T01:34:23.979Z,6.92
2017-03-16T01:35:04.857Z,6.84
2017-03-16T01:35:45.743Z,6.81
2017-03-16T01:36:26.625Z,6.82
2017-03-16T01:37:07.503Z,6.87
2017-03-16T01:37:48.380Z,6.85
2017-03-16T01:38:29.261Z,6.82
2017-03-16T01:39:10.137Z,6.84
2017-03-16T01:39:51.006Z,6.79
2017-03-16T01:40:31.881Z,6.84
2017-03-16T01:41:12.754Z,6.84
2017-03-16T01:41:53.637Z,6.88
2017-03-16T01:42:34.519Z,6.79
2017-03-16T01:43:15.406Z,6.87
2017-03-16T01:43:56.314Z,6.87
2017-03-16T01:44:37.209Z,6.87
2017-03-16T01:45:18.063Z,6.95
2017-03-16T01:45:59.214Z,6.85
2017-03-16T01:46:40.096Z,6.77
2017-03-16T01:47:20.973Z,6.81
2017-03-16T01:48:01.858Z,6.84
2017-03-16T01:48:42.744Z,6.77
2017-03-16T01:49:23.616Z,6.81
2017-03-16T01:50:04.496Z,6.84
2017-03-16T01:50:45.380Z,6.87
2017-03-16T01:51:26.281Z,6.77
2017-03-16T01:52:07.170Z,6.79
2017-03-16T01:52:48.051Z,6.81
2017-03-16T01:53:28.928Z,6.84
2017-03-16T01:54:09.801Z,6.74
2017-03-16T01:54:50.677Z,6.79
2017-03-16T01:55:31.566Z,6.84
2017-03-16T01:56:12.510Z,6.84
2017-03-16T01:56:53.382Z,6.87
2017-03-16T01:57:34.260Z,6.88
2017-03-16T01:58:15.146Z,6.87
2017-03-16T01:58:56.029Z,6.84
2017-03-16T01:59:36.915Z,6.79
2017-03-16T02:00:17.794Z,6.85
2017-03-16T02:00:58.680Z,6.82
2017-03-16T02:01:39.563Z,6.79
2017-03-16T02:02:20.451Z,6.72
2017-03-16T02:03:01.322Z,6.7
2017-03-16T02:03:42.209Z,6.84
2017-03-16T02:04:23.099Z,6.82
2017-03-16T02:05:03.978Z,6.87
2017-03-16T02:05:44.849Z,6.81
2017-03-16T02:06:25.733Z,6.78
2017-03-16T02:07:06.614Z,6.82
2017-03-16T02:07:47.490Z,6.72
2017-03-16T02:08:28.376Z,6.75
2017-03-16T02:09:09.261Z,6.72
2017-03-16T02:09:50.152Z,6.77
2017-03-16T02:10:31.015Z,6.7
2017-03-16T02:11:11.933Z,6.81
2017-03-16T02:11:52.774Z,6.88
2017-03-16T02:12:33.674Z,6.87
2017-03-16T02:13:14.546Z,6.96
2017-03-16T02:13:55.461Z,6.96
2017-03-16T02:14:36.340Z,6.87
2017-03-16T02:15:17.219Z,6.89
2017-03-16T02:15:58.098Z,6.89
2017-03-16T02:16:38.979Z,6.95
2017-03-16T02:17:19.856Z,6.96
2017-03-16T02:18:00.738Z,6.87
2017-03-16T02:18:41.628Z,6.92
2017-03-16T02:19:22.508Z,6.88
2017-03-16T02:20:03.384Z,6.84
2017-03-16T02:20:44.261Z,6.89
2017-03-16T02:21:25.137Z,6.93
2017-03-16T02:22:06.017Z,6.95
2017-03-16T02:22:46.903Z,6.97
2017-03-16T02:23:27.779Z,7.11
2017-03-16T02:24:08.663Z,7.07
2017-03-16T02:24:49.538Z,7.03
2017-03-16T02:25:30.417Z,7.05
2017-03-16T02:26:11.306Z,7.05
2017-03-16T02:26:52.192Z,7.2
2017-03-16T02:27:33.074Z,7.1
2017-03-16T02:28:13.948Z,6.95
2017-03-16T02:28:54.827Z,7.02
2017-03-16T02:29:35.715Z,7.05
2017-03-16T02:30:16.599Z,7.03
2017-03-16T02:30:57.483Z,7.05
2017-03-16T02:31:38.364Z,7.03
2017-03-16T02:32:19.273Z,7.07
2017-03-16T02:33:00.143Z,7.06
2017-03-16T02:33:41.026Z,7.07
2017-03-16T02:34:21.995Z,7.06
2017-03-16T02:35:03.031Z,7.05
2017-03-16T02:35:43.931Z,7.1
2017-03-16T02:36:24.818Z,7.07
2017-03-16T02:37:05.710Z,7.15
2017-03-16T02:37:46.667Z,7.13
2017-03-16T02:38:27.547Z,7.14
2017-03-16T02:39:08.467Z,7.03
2017-03-16T02:39:49.364Z,6.89
2017-03-16T02:40:30.246Z,7
2017-03-16T02:41:11.128Z,6.95
2017-03-16T02:41:52.020Z,7.05
2017-03-16T02:42:32.906Z,7.11
2017-03-16T02:43:13.788Z,7.18
2017-03-16T02:43:54.667Z,7.23
2017-03-16T02:44:35.553Z,7.15
2017-03-16T02:45:16.479Z,7.03
2017-03-16T02:45:57.364Z,7.06
2017-03-16T02:46:38.244Z,7.1
2017-03-16T02:47:19.130Z,7.23
2017-03-16T02:48:00.018Z,7.25
2017-03-16T02:48:40.904Z,7.21
2017-03-16T02:49:21.779Z,7.31
2017-03-16T02:50:02.660Z,7.28
2017-03-16T02:50:43.543Z,7.18
2017-03-16T02:51:24.428Z,7.25
2017-03-16T02:52:05.316Z,7.15
2017-03-16T02:52:46.197Z,7.1
2017-03-16T02:53:27.086Z,7.15
2017-03-16T02:54:07.964Z,7.23
2017-03-16T02:54:48.844Z,7.14
2017-03-16T02:55:29.729Z,7.33
2017-03-16T02:56:10.618Z,7.38
2017-03-16T02:56:51.495Z,7.33
2017-03-16T02:57:32.502Z,7.4
2017-03-16T02:58:13.387Z,7.28
2017-03-16T02:58:54.278Z,7.29
2017-03-16T02:59:35.153Z,7.31
2017-03-16T03:00:16.028Z,7.03
2017-03-16T03:00:56.918Z,7.11
2017-03-16T03:01:37.810Z,7.03
2017-03-16T03:02:18.674Z,6.99
2017-03-16T03:02:59.557Z,7.1
2017-03-16T03:03:40.429Z,7.07
2017-03-16T03:04:21.312Z,7.14
2017-03-16T03:05:02.197Z,7.06
2017-03-16T03:05:43.078Z,7.18
2017-03-16T03:06:23.957Z,7.03
2017-03-16T03:07:04.848Z,6.99
2017-03-16T03:07:45.734Z,6.93
2017-03-16T03:08:26.641Z,6.99
2017-03-16T03:09:07.496Z,7.03
2017-03-16T03:09:48.385Z,7.02
2017-03-16T03:10:29.270Z,6.99
2017-03-16T03:11:10.149Z,7.03
2017-03-16T03:11:51.027Z,7.17
2017-03-16T03:12:31.911Z,7.14
2017-03-16T03:13:12.796Z,7.28
2017-03-16T03:13:53.689Z,7.2
2017-03-16T03:14:34.541Z,7.24
2017-03-16T03:15:15.409Z,7.2
2017-03-16T03:15:56.289Z,7.23
2017-03-16T03:16:37.187Z,7.2
2017-03-16T03:17:18.062Z,7.17
2017-03-16T03:17:58.949Z,7.06
2017-03-16T03:18:39.841Z,6.95
2017-03-16T03:19:20.707Z,6.93
2017-03-16T03:20:01.582Z,7
2017-03-16T03:20:42.465Z,7.06
2017-03-16T03:21:23.345Z,7.06
2017-03-16T03:22:04.236Z,7.06
2017-03-16T03:22:45.105Z,7
2017-03-16T03:23:25.984Z,7.11
2017-03-16T03:24:06.909Z,7.07
2017-03-16T03:24:47.803Z,7.03
2017-03-16T03:25:28.677Z,7.02
2017-03-16T03:26:09.559Z,7.06
2017-03-16T03:26:50.450Z,7.03
2017-03-16T03:27:31.332Z,7.07
2017-03-16T03:28:12.207Z,6.99
2017-03-16T03:28:53.075Z,6.99
2017-03-16T03:29:33.954Z,6.99
2017-03-16T03:30:14.837Z,7.03
2017-03-16T03:30:55.719Z,7.03
2017-03-16T03:31:36.599Z,6.99
2017-03-16T03:32:17.479Z,7.03
2017-03-16T03:32:58.366Z,6.99
2017-03-16T03:33:39.262Z,6.95
2017-03-16T03:34:20.155Z,6.95
2017-03-16T03:35:00.998Z,6.81
2017-03-16T03:35:41.864Z,6.79
2017-03-16T03:36:22.762Z,6.84
2017-03-16T03:37:03.645Z,6.72
2017-03-16T03:37:44.522Z,6.72
2017-03-16T03:38:25.402Z,6.78
2017-03-16T03:39:06.286Z,6.81
2017-03-16T03:39:47.190Z,6.87
2017-03-16T03:40:28.053Z,6.96
2017-03-16T03:41:08.940Z,6.92
2017-03-16T03:41:49.819Z,6.97
2017-03-16T03:42:30.701Z,7.02
2017-03-16T03:43:11.579Z,7.05
2017-03-16T03:43:52.458Z,6.92
2017-03-16T03:44:33.350Z,6.88
2017-03-16T03:45:14.231Z,6.87
2017-03-16T03:45:55.104Z,6.87
2017-03-16T03:46:35.984Z,6.85
2017-03-16T03:47:16.862Z,6.87
2017-03-16T03:47:57.751Z,6.84
2017-03-16T03:48:38.629Z,6.87
2017-03-16T03:49:19.525Z,6.92
2017-03-16T03:50:00.384Z,6.89
2017-03-16T03:50:41.248Z,6.96
2017-03-16T03:51:22.134Z,7.1
2017-03-16T03:52:03.025Z,7.03
2017-03-16T03:52:43.905Z,7.05
2017-03-16T03:53:24.779Z,6.89
2017-03-16T03:54:05.678Z,6.88
2017-03-16T03:54:46.553Z,6.85
2017-03-16T03:55:27.437Z,6.79
2017-03-16T03:56:08.324Z,6.77
2017-03-16T03:56:49.203Z,6.89
2017-03-16T03:57:30.081Z,6.87
2017-03-16T03:58:10.972Z,6.89
2017-03-16T03:58:51.851Z,6.69
2017-03-16T03:59:32.741Z,6.82
2017-03-16T04:00:13.626Z,6.85
2017-03-16T04:00:54.512Z,6.85
2017-03-16T04:01:35.386Z,6.85
2017-03-16T04:02:16.281Z,6.87
2017-03-16T04:02:57.183Z,6.72
2017-03-16T04:03:38.057Z,6.67
2017-03-16T04:04:18.952Z,6.79
2017-03-16T04:04:59.850Z,6.82
2017-03-16T04:05:40.716Z,6.74
2017-03-16T04:06:21.588Z,6.79
2017-03-16T04:07:02.470Z,6.87
2017-03-16T04:07:43.352Z,6.87
2017-03-16T04:08:24.235Z,6.84
2017-03-16T04:09:05.118Z,6.82
2017-03-16T04:09:45.999Z,6.79
2017-03-16T04:10:26.893Z,6.82
2017-03-16T04:11:07.777Z,6.84
2017-03-16T04:11:48.664Z,6.89
2017-03-16T04:12:29.550Z,6.87
2017-03-16T04:13:10.452Z,6.84
2017-03-16T04:13:51.328Z,6.78
2017-03-16T04:14:32.203Z,6.74
2017-03-16T04:15:13.087Z,6.72
2017-03-16T04:15:53.969Z,6.69
2017-03-16T04:16:34.847Z,6.69
2017-03-16T04:17:15.730Z,6.59
2017-03-16T04:17:56.621Z,6.56
2017-03-16T04:18:37.513Z,6.56
2017-03-16T04:19:18.398Z,6.62
2017-03-16T04:19:59.286Z,6.54
2017-03-16T04:20:40.164Z,6.56
2017-03-16T04:22:18.813Z,6.51
2017-03-16T04:22:59.694Z,6.54
2017-03-16T04:23:40.571Z,6.42
2017-03-16T04:24:21.443Z,6.44
2017-03-16T04:25:02.332Z,6.48
2017-03-16T04:25:43.218Z,6.36
2017-03-16T04:26:24.099Z,6.44
2017-03-16T04:27:04.984Z,6.57
2017-03-16T04:27:45.866Z,6.42
2017-03-16T04:28:26.749Z,6.45
2017-03-16T04:29:07.623Z,6.38
2017-03-16T04:29:48.504Z,6.46
2017-03-16T04:30:29.382Z,6.44
2017-03-16T04:31:10.267Z,6.51
2017-03-16T04:31:51.147Z,6.44
2017-03-16T04:32:32.006Z,6.44
2017-03-16T04:33:12.885Z,6.46
2017-03-16T04:33:53.771Z,6.49
2017-03-16T04:34:34.667Z,6.39
2017-03-16T04:35:15.549Z,6.45
2017-03-16T04:35:56.432Z,6.51
2017-03-16T04:36:37.333Z,6.33
2017-03-16T04:37:18.202Z,6.3
2017-03-16T04:37:59.091Z,6.42
2017-03-16T04:38:39.970Z,6.63
2017-03-16T04:39:20.890Z,6.52
2017-03-16T04:40:01.765Z,6.51
2017-03-16T04:40:42.645Z,6.39
2017-03-16T04:41:23.525Z,6.38
2017-03-16T04:42:04.410Z,6.48
2017-03-16T04:42:45.311Z,6.41
2017-03-16T04:43:26.184Z,6.44
2017-03-16T04:44:07.074Z,6.44
2017-03-16T04:44:47.959Z,6.42
2017-03-16T04:45:28.841Z,6.39
2017-03-16T04:46:09.705Z,6.63
2017-03-16T04:46:50.587Z,6.48
2017-03-16T04:47:31.473Z,6.45
2017-03-16T04:48:12.360Z,6.28
2017-03-16T04:48:53.239Z,6.42
2017-03-16T04:49:34.120Z,6.42
2017-03-16T04:50:15.017Z,6.54
2017-03-16T04:50:55.886Z,6.45
2017-03-16T04:51:36.769Z,6.39
2017-03-16T04:52:17.647Z,6.38
2017-03-16T04:52:58.529Z,6.45
2017-03-16T04:53:39.409Z,6.45
2017-03-16T04:54:20.288Z,6.54
2017-03-16T04:55:01.165Z,6.39
2017-03-16T04:55:42.045Z,6.52
2017-03-16T04:56:22.977Z,6.36
2017-03-16T04:57:03.800Z,6.54
2017-03-16T04:57:44.691Z,6.33
2017-03-16T04:58:25.576Z,6.16
2017-03-16T04:59:06.456Z,6.19
2017-03-16T04:59:47.323Z,6.26
2017-03-16T05:00:28.201Z,6.27
2017-03-16T05:01:09.084Z,6.27
2017-03-16T05:01:49.960Z,6.28
2017-03-16T05:02:30.835Z,6.42
2017-03-16T05:03:11.718Z,6.35
2017-03-16T05:03:52.613Z,6.26
2017-03-16T05:04:33.515Z,6.33
2017-03-16T05:05:14.384Z,6.26
2017-03-16T05:05:55.260Z,6.35
2017-03-16T05:06:36.138Z,6.28
2017-03-16T05:07:17.018Z,6.27
2017-03-16T05:07:57.894Z,6.19
2017-03-16T05:08:38.794Z,6.36
2017-03-16T05:09:19.677Z,6.26
2017-03-16T05:10:00.558Z,6.28
2017-03-16T05:10:41.442Z,6.19
2017-03-16T05:11:22.325Z,6.33
2017-03-16T05:12:03.212Z,6.27
2017-03-16T05:12:44.096Z,6.2
2017-03-16T05:13:24.981Z,6.2
2017-03-16T05:14:05.864Z,6.17
2017-03-16T05:14:46.745Z,6.19
2017-03-16T05:15:27.635Z,6.19
2017-03-16T05:16:08.513Z,6.19
2017-03-16T05:16:49.392Z,6.24
2017-03-16T05:17:30.279Z,6.22
2017-03-16T05:18:11.162Z,6.16
2017-03-16T05:18:52.049Z,6.14
2017-03-16T05:19:32.927Z,6.28
2017-03-16T05:20:13.808Z,6.17
2017-03-16T05:20:54.693Z,6.08
2017-03-16T05:21:35.577Z,6.14
2017-03-16T05:22:16.472Z,6.12
2017-03-16T05:22:57.352Z,6.17
2017-03-16T05:23:38.234Z,6.19
2017-03-16T05:24:19.113Z,6.17
2017-03-16T05:25:00.002Z,6.27
2017-03-16T05:25:40.882Z,6.31
2017-03-16T05:26:21.762Z,6.2
2017-03-16T05:27:02.644Z,6.17
2017-03-16T05:27:43.542Z,6.16
2017-03-16T05:28:24.421Z,6.24
2017-03-16T05:29:05.313Z,6.27
2017-03-16T05:29:46.200Z,6.2
2017-03-16T05:30:27.091Z,6.33
2017-03-16T05:31:07.959Z,6.3
2017-03-16T05:31:48.829Z,6.16
2017-03-16T05:32:29.713Z,6.36
2017-03-16T05:33:10.602Z,6.35
2017-03-16T05:33:51.491Z,6.19
2017-03-16T05:34:32.356Z,6.27
2017-03-16T05:35:13.228Z,6.27
2017-03-16T05:35:54.106Z,6.17
2017-03-16T05:36:34.989Z,6.3
2017-03-16T05:37:15.880Z,6.16
2017-03-16T05:37:56.738Z,6.33
2017-03-16T05:38:37.615Z,6.36
2017-03-16T05:39:18.486Z,6.38
2017-03-16T05:39:59.364Z,6.33
2017-03-16T05:40:40.245Z,6.19
2017-03-16T05:41:21.127Z,6.24
2017-03-16T05:42:02.008Z,6.14
2017-03-16T05:42:42.885Z,6.3
2017-03-16T05:43:23.769Z,6.27
2017-03-16T05:44:04.650Z,6.12
2017-03-16T05:44:45.532Z,6.14
2017-03-16T05:45:26.417Z,6.22
2017-03-16T05:46:07.287Z,6.17
2017-03-16T05:46:48.170Z,6.27
2017-03-16T05:47:29.051Z,6.33
2017-03-16T05:48:09.930Z,6.2
2017-03-16T05:48:50.814Z,6.33
2017-03-16T05:49:31.700Z,6.28
2017-03-16T05:50:12.575Z,6.24
2017-03-16T05:50:53.461Z,6.35
2017-03-16T05:51:34.316Z,6.38
2017-03-16T05:52:15.193Z,6.41
2017-03-16T05:52:56.078Z,6.33
2017-03-16T05:53:36.960Z,6.3
2017-03-16T05:54:17.842Z,6.45
2017-03-16T05:54:58.724Z,6.45
2017-03-16T05:55:39.607Z,6.49
2017-03-16T05:56:20.483Z,6.6
2017-03-16T05:57:01.375Z,6.54
2017-03-16T05:57:42.249Z,6.38
2017-03-16T05:58:23.126Z,6.41
2017-03-16T05:59:04.006Z,6.42
2017-03-16T05:59:44.913Z,6.57
2017-03-16T06:00:25.809Z,6.51
2017-03-16T06:01:06.656Z,6.46
2017-03-16T06:01:47.549Z,6.39
2017-03-16T06:02:28.439Z,6.44
2017-03-16T06:03:09.317Z,6.36
2017-03-16T06:03:50.192Z,6.3
2017-03-16T06:04:31.074Z,6.28
2017-03-16T06:05:11.964Z,6.22
2017-03-16T06:05:52.842Z,6.27
2017-03-16T06:06:33.723Z,6.33
2017-03-16T06:07:14.604Z,6.33
2017-03-16T06:07:55.489Z,6.42
2017-03-16T06:08:36.370Z,6.36
2017-03-16T06:09:17.247Z,6.41
2017-03-16T06:09:58.118Z,6.41
2017-03-16T06:10:38.987Z,6.46
2017-03-16T06:11:19.877Z,6.45
2017-03-16T06:12:00.758Z,6.39
2017-03-16T06:12:41.635Z,6.48
2017-03-16T06:13:22.508Z,6.54
2017-03-16T06:14:03.390Z,6.45
2017-03-16T06:14:44.271Z,6.45
2017-03-16T06:15:25.153Z,6.33
2017-03-16T06:16:06.030Z,6.41
2017-03-16T06:16:46.906Z,6.36
2017-03-16T06:17:27.792Z,6.49
2017-03-16T06:18:08.678Z,6.41
2017-03-16T06:18:49.558Z,6.41
2017-03-16T06:19:30.433Z,6.44
2017-03-16T06:20:11.308Z,6.44
2017-03-16T06:20:52.197Z,6.3
2017-03-16T06:21:33.083Z,6.33
2017-03-16T06:22:13.967Z,6.45
2017-03-16T06:22:54.847Z,6.42
2017-03-16T06:23:35.738Z,6.44
2017-03-16T06:24:16.653Z,6.49
2017-03-16T06:24:57.546Z,6.56
2017-03-16T06:25:38.438Z,6.59
2017-03-16T06:26:19.316Z,6.59
2017-03-16T06:27:00.197Z,6.57
2017-03-16T06:27:41.088Z,6.57
2017-03-16T06:28:21.974Z,6.54
2017-03-16T06:29:02.851Z,6.54
2017-03-16T06:29:43.736Z,6.56
2017-03-16T06:30:24.622Z,6.6
2017-03-16T06:31:05.505Z,6.57
2017-03-16T06:31:46.392Z,6.56
2017-03-16T06:32:27.260Z,6.44
2017-03-16T06:33:08.147Z,6.6
2017-03-16T06:33:49.040Z,6.54
2017-03-16T06:35:42.689Z,6.48
2017-03-16T06:36:23.566Z,6.52
2017-03-16T06:37:04.444Z,6.56
2017-03-16T06:37:45.332Z,6.66
2017-03-16T06:38:26.217Z,6.6
2017-03-16T06:39:07.117Z,6.57
2017-03-16T06:39:48.004Z,6.64
2017-03-16T06:40:28.878Z,6.67
2017-03-16T06:41:09.771Z,6.78
2017-03-16T06:41:50.646Z,6.87
2017-03-16T06:42:31.528Z,6.81
2017-03-16T06:43:12.420Z,6.87
2017-03-16T06:43:53.294Z,6.79
2017-03-16T06:44:34.178Z,6.72
2017-03-16T06:45:15.094Z,6.75
2017-03-16T06:45:55.981Z,6.82
2017-03-16T06:46:36.848Z,6.82
2017-03-16T06:47:17.725Z,6.75
2017-03-16T06:47:58.595Z,6.84
2017-03-16T06:48:39.479Z,6.81
2017-03-16T06:49:20.360Z,6.85
2017-03-16T06:50:01.242Z,6.87
2017-03-16T06:50:42.118Z,6.85
2017-03-16T06:51:22.994Z,6.92
2017-03-16T06:52:03.876Z,6.95
2017-03-16T06:52:44.761Z,6.88
2017-03-16T06:53:25.637Z,7.03
2017-03-16T06:54:06.521Z,7.15
2017-03-16T06:54:47.404Z,7.29
2017-03-16T06:55:28.289Z,7.28
2017-03-16T06:56:09.171Z,7.39
2017-03-16T06:56:50.065Z,7.42
2017-03-16T06:57:30.926Z,7.5
2017-03-16T06:58:11.827Z,7.42
2017-03-16T06:58:52.707Z,7.33
2017-03-16T06:59:33.564Z,7.39
2017-03-16T07:00:14.448Z,7.32
2017-03-16T07:00:58.298Z,7.32
2017-03-16T07:01:39.173Z,7.13
2017-03-16T07:02:20.046Z,7.29
2017-03-16T07:03:00.924Z,7.32
2017-03-16T07:03:41.792Z,7.36
2017-03-16T07:04:22.688Z,7.33
2017-03-16T07:05:03.574Z,7.35
2017-03-16T07:05:44.455Z,7.32
2017-03-16T07:06:25.333Z,7.38
2017-03-16T07:07:06.229Z,7.38
2017-03-16T07:07:47.113Z,7.4
2017-03-16T07:08:27.994Z,7.31
2017-03-16T07:09:08.865Z,7.39
2017-03-16T07:09:49.762Z,7.35
2017-03-16T07:10:30.640Z,7.43
2017-03-16T07:11:11.507Z,7.42
2017-03-16T07:11:52.394Z,7.39
2017-03-16T07:12:33.259Z,7.5
2017-03-16T07:13:14.154Z,7.45
2017-03-16T07:13:55.036Z,7.48
2017-03-16T07:14:35.922Z,7.48
2017-03-16T07:15:16.804Z,7.6
2017-03-16T07:15:57.689Z,7.66
2017-03-16T07:16:38.587Z,7.85
2017-03-16T07:17:19.473Z,7.69
2017-03-16T07:18:00.360Z,7.66
2017-03-16T07:18:41.241Z,7.56
2017-03-16T07:19:22.120Z,7.69
2017-03-16T07:20:02.999Z,7.7
2017-03-16T07:20:43.871Z,7.77
2017-03-16T07:21:24.749Z,7.85
2017-03-16T07:22:05.653Z,7.87
2017-03-16T07:22:46.525Z,8
2017-03-16T07:23:27.407Z,7.95
2017-03-16T07:24:08.297Z,7.82
2017-03-16T07:24:49.203Z,7.9
2017-03-16T07:25:30.050Z,7.73
2017-03-16T07:26:10.953Z,7.7
2017-03-16T07:26:51.816Z,7.69
2017-03-16T07:27:32.705Z,7.85
2017-03-16T07:28:13.591Z,7.72
2017-03-16T07:28:54.468Z,7.67
2017-03-16T07:29:35.355Z,7.61
2017-03-16T07:30:16.232Z,7.58
2017-03-16T07:30:57.117Z,7.5
2017-03-16T07:31:37.991Z,7.5
2017-03-16T07:32:18.874Z,7.5
2017-03-16T07:32:59.760Z,7.53
2017-03-16T07:33:40.659Z,7.51
2017-03-16T07:34:21.537Z,7.61
2017-03-16T07:35:02.423Z,7.69
2017-03-16T07:35:43.311Z,7.72
2017-03-16T07:36:24.179Z,7.83
2017-03-16T07:37:05.059Z,7.83
2017-03-16T07:37:45.941Z,7.87
2017-03-16T07:38:26.834Z,7.9
2017-03-16T07:39:07.719Z,8.03
2017-03-16T07:39:48.587Z,8.1
2017-03-16T07:40:29.472Z,8.19
2017-03-16T07:41:10.355Z,8.27
2017-03-16T07:41:51.243Z,8.26
2017-03-16T07:42:32.119Z,8.24
2017-03-16T07:43:13.010Z,8.16
2017-03-16T07:43:53.892Z,8.1
2017-03-16T07:44:34.770Z,8.16
2017-03-16T07:45:15.651Z,8.28
2017-03-16T07:45:56.536Z,8.24
2017-03-16T07:46:37.413Z,8.2
2017-03-16T07:47:18.294Z,8.26
2017-03-16T07:47:59.172Z,8.48
2017-03-16T07:48:40.070Z,8.48
2017-03-16T07:49:20.957Z,8.46
2017-03-16T07:50:01.847Z,8.33
2017-03-16T07:50:42.729Z,8.19
2017-03-16T07:51:23.611Z,8.2
2017-03-16T07:52:04.502Z,8.06
2017-03-16T07:52:45.383Z,7.9
2017-03-16T07:53:26.264Z,7.79
2017-03-16T07:54:07.141Z,7.91
2017-03-16T07:54:48.035Z,8.06
2017-03-16T07:55:28.927Z,8.08
2017-03-16T07:56:09.812Z,8.28
2017-03-16T07:56:50.700Z,8.37
2017-03-16T07:57:31.593Z,8.3
2017-03-16T07:58:12.473Z,8.24
2017-03-16T07:58:53.342Z,8.16
2017-03-16T07:59:34.235Z,8.16
2017-03-16T08:00:15.121Z,8.23
2017-03-16T08:00:56.008Z,8.41
2017-03-16T08:01:36.919Z,8.27
2017-03-16T08:02:17.804Z,8.36
2017-03-16T08:02:58.686Z,8.49
2017-03-16T08:03:39.569Z,8.64
2017-03-16T08:04:20.547Z,8.69
2017-03-16T08:05:01.436Z,8.69
2017-03-16T08:05:42.325Z,8.49
2017-03-16T08:06:23.223Z,8.46
2017-03-16T08:07:04.112Z,8.45
2017-03-16T08:07:44.993Z,8.61
2017-03-16T08:08:25.881Z,8.73
2017-03-16T08:09:06.769Z,8.66
2017-03-16T08:09:47.645Z,8.67
2017-03-16T08:10:28.528Z,8.74
2017-03-16T08:11:09.413Z,8.81
2017-03-16T08:11:50.287Z,8.87
2017-03-16T08:12:31.173Z,8.76
2017-03-16T08:13:12.081Z,8.74
2017-03-16T08:13:52.941Z,8.76
2017-03-16T08:14:33.818Z,8.78
2017-03-16T08:15:14.685Z,8.69
2017-03-16T08:15:55.616Z,8.81
2017-03-16T08:16:36.496Z,8.74
2017-03-16T08:17:17.381Z,8.82
2017-03-16T08:17:58.266Z,9.02
2017-03-16T08:18:39.140Z,8.88
2017-03-16T08:19:20.017Z,8.97
2017-03-16T08:20:00.923Z,8.97
2017-03-16T08:20:41.848Z,9.06
2017-03-16T08:21:22.726Z,9.14
2017-03-16T08:22:03.633Z,9.03
2017-03-16T08:22:44.527Z,9.02
2017-03-16T08:23:25.410Z,8.85
2017-03-16T08:24:06.292Z,9
2017-03-16T08:24:47.183Z,9.04
2017-03-16T08:25:28.067Z,9.14
2017-03-16T08:26:08.946Z,9.22
2017-03-16T08:26:49.827Z,9.21
2017-03-16T08:27:30.717Z,9.26
2017-03-16T08:28:11.602Z,9.22
2017-03-16T08:28:52.508Z,9.18
2017-03-16T08:29:33.394Z,9.21
2017-03-16T08:30:14.275Z,9.29
2017-03-16T08:30:55.154Z,9.23
2017-03-16T08:31:36.035Z,9.31
2017-03-16T08:32:16.923Z,9.13
2017-03-16T08:32:57.811Z,9.22
2017-03-16T08:33:38.694Z,9.1
2017-03-16T08:34:19.610Z,9.13
2017-03-16T08:35:00.509Z,9.19
2017-03-16T08:35:41.407Z,9
2017-03-16T08:36:22.297Z,8.89
2017-03-16T08:37:03.186Z,8.95
2017-03-16T08:37:44.064Z,8.88
2017-03-16T08:38:24.944Z,9.02
2017-03-16T08:39:05.835Z,9.22
2017-03-16T08:39:46.715Z,9.39
2017-03-16T08:40:27.600Z,9.34
2017-03-16T08:41:08.475Z,9.5
2017-03-16T08:41:49.357Z,9.46
2017-03-16T08:42:30.251Z,9.47
2017-03-16T08:43:11.144Z,9.64
2017-03-16T08:43:52.034Z,9.72
2017-03-16T08:44:32.904Z,9.5
2017-03-16T08:45:13.794Z,9.25
2017-03-16T08:45:54.669Z,9.36
2017-03-16T08:46:35.555Z,9.23
2017-03-16T08:47:16.443Z,9.21
2017-03-16T08:47:57.321Z,9.32
2017-03-16T08:48:38.207Z,9.26
2017-03-16T08:49:19.100Z,9.29
2017-03-16T08:49:59.986Z,9.31
2017-03-16T08:50:40.872Z,9.28
2017-03-16T08:51:21.764Z,9.03
2017-03-16T08:52:02.653Z,9.29
2017-03-16T08:52:43.534Z,9.41
2017-03-16T08:53:24.435Z,9.37
2017-03-16T08:54:05.318Z,9.36
2017-03-16T08:54:46.215Z,9.47
2017-03-16T08:55:27.087Z,9.48
2017-03-16T08:56:07.978Z,9.54
2017-03-16T08:56:48.868Z,9.56
2017-03-16T08:57:29.740Z,9.47
2017-03-16T08:58:10.653Z,9.34
2017-03-16T08:58:51.543Z,9.48
2017-03-16T08:59:32.430Z,9.61
2017-03-16T09:00:13.313Z,9.72
2017-03-16T09:00:54.203Z,9.97
2017-03-16T09:01:35.081Z,10.04
2017-03-16T09:02:15.960Z,9.64
2017-03-16T09:02:56.853Z,9.48
2017-03-16T09:03:37.738Z,9.58
2017-03-16T09:04:18.621Z,9.72
2017-03-16T09:04:59.524Z,9.69
2017-03-16T09:05:40.395Z,9.83
2017-03-16T09:06:21.282Z,9.82
2017-03-16T09:07:02.173Z,9.79
2017-03-16T09:07:43.056Z,9.89
2017-03-16T09:08:23.945Z,9.98
2017-03-16T09:09:04.852Z,9.79
2017-03-16T09:09:45.741Z,9.61
2017-03-16T09:10:26.622Z,9.79
2017-03-16T09:11:07.508Z,9.8